sensor_id;sensor_type;location;lat;lon;timestamp;P1;durP1;ratioP1;P2;durP2;ratioP2
18592;SDS011;9426;54.118;17.948;2023-03-01T00:04:19;16.47;;;4.87;;
18592;SDS011;9426;54.118;17.948;2023-03-01T00:09:43;9.87;;;4.27;;
18592;SDS011;9426;54.118;17.948;2023-03-01T00:15:09;11.10;;;4.27;;
18592;SDS011;9426;54.118;17.948;2023-03-01T00:20:33;19.67;;;4.40;;
18592;SDS011;9426;54.118;17.948;2023-03-01T00:25:56;10.60;;;4.07;;
18592;SDS011;9426;54.118;17.948;2023-03-01T00:31:22;12.93;;;4.77;;
18592;SDS011;9426;54.118;17.948;2023-03-01T00:36:47;9.97;;;4.33;;
18592;SDS011;9426;54.118;17.948;2023-03-01T00:42:11;8.97;;;3.87;;
18592;SDS011;9426;54.118;17.948;2023-03-01T00:47:36;7.57;;;3.83;;
18592;SDS011;9426;54.118;17.948;2023-03-01T00:52:59;9.93;;;3.90;;
18592;SDS011;9426;54.118;17.948;2023-03-01T00:58:23;11.13;;;3.90;;
18592;SDS011;9426;54.118;17.948;2023-03-01T01:03:49;12.97;;;4.30;;
18592;SDS011;9426;54.118;17.948;2023-03-01T01:09:15;13.90;;;4.07;;
18592;SDS011;9426;54.118;17.948;2023-03-01T01:14:39;12.90;;;4.07;;
18592;SDS011;9426;54.118;17.948;2023-03-01T01:20:05;11.40;;;4.27;;
18592;SDS011;9426;54.118;17.948;2023-03-01T01:25:30;9.27;;;3.93;;
18592;SDS011;9426;54.118;17.948;2023-03-01T01:30:56;12.10;;;4.07;;
18592;SDS011;9426;54.118;17.948;2023-03-01T01:36:21;9.63;;;3.80;;
18592;SDS011;9426;54.118;17.948;2023-03-01T01:41:45;9.90;;;4.10;;
18592;SDS011;9426;54.118;17.948;2023-03-01T01:47:11;9.57;;;3.93;;
18592;SDS011;9426;54.118;17.948;2023-03-01T01:52:41;10.40;;;3.73;;
18592;SDS011;9426;54.118;17.948;2023-03-01T01:58:05;10.03;;;3.60;;
18592;SDS011;9426;54.118;17.948;2023-03-01T02:03:32;9.97;;;4.40;;
18592;SDS011;9426;54.118;17.948;2023-03-01T02:09:06;12.00;;;3.73;;
18592;SDS011;9426;54.118;17.948;2023-03-01T02:14:34;12.53;;;4.67;;
18592;SDS011;9426;54.118;17.948;2023-03-01T02:20:07;17.43;;;4.17;;
18592;SDS011;9426;54.118;17.948;2023-03-01T02:25:42;13.33;;;4.60;;
18592;SDS011;9426;54.118;17.948;2023-03-01T02:31:14;12.83;;;4.03;;
18592;SDS011;9426;54.118;17.948;2023-03-01T02:37:00;8.40;;;3.80;;
18592;SDS011;9426;54.118;17.948;2023-03-01T02:42:27;10.80;;;3.80;;
18592;SDS011;9426;54.118;17.948;2023-03-01T02:47:56;12.50;;;4.87;;
18592;SDS011;9426;54.118;17.948;2023-03-01T02:53:21;14.67;;;5.23;;
18592;SDS011;9426;54.118;17.948;2023-03-01T02:58:55;10.57;;;4.10;;
18592;SDS011;9426;54.118;17.948;2023-03-01T03:04:24;11.87;;;4.17;;
18592;SDS011;9426;54.118;17.948;2023-03-01T03:09:48;12.03;;;4.97;;
18592;SDS011;9426;54.118;17.948;2023-03-01T03:15:12;12.63;;;4.80;;
18592;SDS011;9426;54.118;17.948;2023-03-01T03:20:37;15.83;;;5.27;;
18592;SDS011;9426;54.118;17.948;2023-03-01T03:26:03;13.37;;;5.63;;
18592;SDS011;9426;54.118;17.948;2023-03-01T03:31:27;14.80;;;6.03;;
18592;SDS011;9426;54.118;17.948;2023-03-01T03:36:54;27.33;;;9.00;;
18592;SDS011;9426;54.118;17.948;2023-03-01T03:42:20;21.07;;;8.53;;
18592;SDS011;9426;54.118;17.948;2023-03-01T03:47:44;34.87;;;12.77;;
18592;SDS011;9426;54.118;17.948;2023-03-01T03:53:10;31.77;;;10.33;;
18592;SDS011;9426;54.118;17.948;2023-03-01T03:58:35;29.87;;;11.27;;
18592;SDS011;9426;54.118;17.948;2023-03-01T04:03:59;45.60;;;13.80;;
18592;SDS011;9426;54.118;17.948;2023-03-01T04:09:26;38.70;;;12.37;;
18592;SDS011;9426;54.118;17.948;2023-03-01T04:14:51;38.50;;;12.63;;
18592;SDS011;9426;54.118;17.948;2023-03-01T04:20:16;45.40;;;14.57;;
18592;SDS011;9426;54.118;17.948;2023-03-01T04:25:48;40.70;;;14.10;;
18592;SDS011;9426;54.118;17.948;2023-03-01T04:31:16;45.30;;;14.70;;
18592;SDS011;9426;54.118;17.948;2023-03-01T04:36:42;48.30;;;15.60;;
18592;SDS011;9426;54.118;17.948;2023-03-01T04:42:08;52.47;;;16.37;;
18592;SDS011;9426;54.118;17.948;2023-03-01T04:47:31;49.10;;;16.10;;
18592;SDS011;9426;54.118;17.948;2023-03-01T04:52:55;40.73;;;16.17;;
18592;SDS011;9426;54.118;17.948;2023-03-01T04:58:22;49.80;;;16.90;;
18592;SDS011;9426;54.118;17.948;2023-03-01T05:03:46;34.40;;;14.67;;
18592;SDS011;9426;54.118;17.948;2023-03-01T05:09:11;53.33;;;17.27;;
18592;SDS011;9426;54.118;17.948;2023-03-01T05:14:36;54.37;;;18.30;;
18592;SDS011;9426;54.118;17.948;2023-03-01T05:20:01;71.60;;;17.90;;
18592;SDS011;9426;54.118;17.948;2023-03-01T05:25:28;52.23;;;17.77;;
18592;SDS011;9426;54.118;17.948;2023-03-01T05:30:56;43.03;;;16.23;;
18592;SDS011;9426;54.118;17.948;2023-03-01T05:36:20;64.30;;;16.87;;
18592;SDS011;9426;54.118;17.948;2023-03-01T05:41:44;58.87;;;17.60;;
18592;SDS011;9426;54.118;17.948;2023-03-01T05:47:09;56.83;;;18.37;;
18592;SDS011;9426;54.118;17.948;2023-03-01T05:52:33;52.23;;;17.47;;
18592;SDS011;9426;54.118;17.948;2023-03-01T05:57:58;34.07;;;14.60;;
18592;SDS011;9426;54.118;17.948;2023-03-01T06:03:24;39.77;;;16.07;;
18592;SDS011;9426;54.118;17.948;2023-03-01T06:08:48;34.47;;;15.13;;
18592;SDS011;9426;54.118;17.948;2023-03-01T06:14:12;99.90;;;18.80;;
18592;SDS011;9426;54.118;17.948;2023-03-01T06:19:38;35.23;;;13.83;;
18592;SDS011;9426;54.118;17.948;2023-03-01T06:25:02;47.93;;;20.43;;
18592;SDS011;9426;54.118;17.948;2023-03-01T06:30:27;44.40;;;15.20;;
18592;SDS011;9426;54.118;17.948;2023-03-01T06:35:53;36.00;;;14.90;;
18592;SDS011;9426;54.118;17.948;2023-03-01T06:41:17;34.87;;;13.27;;
18592;SDS011;9426;54.118;17.948;2023-03-01T06:46:41;32.60;;;13.67;;
18592;SDS011;9426;54.118;17.948;2023-03-01T06:52:06;33.93;;;15.20;;
18592;SDS011;9426;54.118;17.948;2023-03-01T06:57:30;33.97;;;13.97;;
18592;SDS011;9426;54.118;17.948;2023-03-01T07:02:54;32.57;;;14.50;;
18592;SDS011;9426;54.118;17.948;2023-03-01T07:08:22;35.70;;;14.83;;
18592;SDS011;9426;54.118;17.948;2023-03-01T07:13:46;32.73;;;14.30;;
18592;SDS011;9426;54.118;17.948;2023-03-01T07:19:09;32.00;;;13.80;;
18592;SDS011;9426;54.118;17.948;2023-03-01T07:24:35;32.10;;;13.60;;
18592;SDS011;9426;54.118;17.948;2023-03-01T07:29:58;35.17;;;14.63;;
18592;SDS011;9426;54.118;17.948;2023-03-01T07:35:22;28.77;;;13.23;;
18592;SDS011;9426;54.118;17.948;2023-03-01T07:40:48;34.33;;;14.13;;
18592;SDS011;9426;54.118;17.948;2023-03-01T07:46:12;29.80;;;12.70;;
18592;SDS011;9426;54.118;17.948;2023-03-01T07:51:36;28.97;;;12.33;;
18592;SDS011;9426;54.118;17.948;2023-03-01T07:57:01;32.13;;;13.27;;
18592;SDS011;9426;54.118;17.948;2023-03-01T08:02:25;33.40;;;14.50;;
18592;SDS011;9426;54.118;17.948;2023-03-01T08:07:49;29.70;;;13.57;;
18592;SDS011;9426;54.118;17.948;2023-03-01T08:13:14;27.83;;;12.10;;
18592;SDS011;9426;54.118;17.948;2023-03-01T08:18:43;31.47;;;13.03;;
18592;SDS011;9426;54.118;17.948;2023-03-01T08:24:08;23.77;;;10.80;;
18592;SDS011;9426;54.118;17.948;2023-03-01T08:29:34;31.60;;;13.37;;
18592;SDS011;9426;54.118;17.948;2023-03-01T08:34:58;32.93;;;13.27;;
18592;SDS011;9426;54.118;17.948;2023-03-01T08:40:21;27.70;;;11.90;;
18592;SDS011;9426;54.118;17.948;2023-03-01T08:45:46;28.07;;;12.00;;
18592;SDS011;9426;54.118;17.948;2023-03-01T08:51:12;22.57;;;10.47;;
18592;SDS011;9426;54.118;17.948;2023-03-01T08:56:40;31.17;;;11.90;;
18592;SDS011;9426;54.118;17.948;2023-03-01T09:02:06;28.60;;;11.60;;
18592;SDS011;9426;54.118;17.948;2023-03-01T09:07:35;23.13;;;10.47;;
18592;SDS011;9426;54.118;17.948;2023-03-01T09:12:59;22.43;;;10.23;;
18592;SDS011;9426;54.118;17.948;2023-03-01T09:18:24;29.47;;;11.83;;
18592;SDS011;9426;54.118;17.948;2023-03-01T09:23:48;22.87;;;10.30;;
18592;SDS011;9426;54.118;17.948;2023-03-01T09:29:12;22.27;;;10.27;;
18592;SDS011;9426;54.118;17.948;2023-03-01T09:34:38;25.73;;;10.93;;
18592;SDS011;9426;54.118;17.948;2023-03-01T09:40:16;22.70;;;10.33;;
18592;SDS011;9426;54.118;17.948;2023-03-01T09:45:50;25.77;;;12.00;;
18592;SDS011;9426;54.118;17.948;2023-03-01T09:51:27;24.73;;;10.77;;
18592;SDS011;9426;54.118;17.948;2023-03-01T09:56:59;23.47;;;10.40;;
18592;SDS011;9426;54.118;17.948;2023-03-01T10:02:31;24.30;;;10.67;;
18592;SDS011;9426;54.118;17.948;2023-03-01T10:13:55;27.03;;;11.73;;
18592;SDS011;9426;54.118;17.948;2023-03-01T10:19:24;27.40;;;10.90;;
18592;SDS011;9426;54.118;17.948;2023-03-01T10:24:56;25.00;;;10.83;;
18592;SDS011;9426;54.118;17.948;2023-03-01T10:30:28;21.97;;;9.83;;
18592;SDS011;9426;54.118;17.948;2023-03-01T10:35:57;21.47;;;10.20;;
18592;SDS011;9426;54.118;17.948;2023-03-01T10:41:22;20.70;;;9.40;;
18592;SDS011;9426;54.118;17.948;2023-03-01T10:46:47;22.63;;;10.10;;
18592;SDS011;9426;54.118;17.948;2023-03-01T10:52:23;30.33;;;12.47;;
18592;SDS011;9426;54.118;17.948;2023-03-01T10:57:50;28.87;;;11.93;;
18592;SDS011;9426;54.118;17.948;2023-03-01T11:03:31;33.70;;;12.93;;
18592;SDS011;9426;54.118;17.948;2023-03-01T11:08:56;30.43;;;13.00;;
18592;SDS011;9426;54.118;17.948;2023-03-01T11:14:22;33.07;;;13.07;;
18592;SDS011;9426;54.118;17.948;2023-03-01T11:19:59;34.73;;;13.67;;
18592;SDS011;9426;54.118;17.948;2023-03-01T11:25:24;29.40;;;12.20;;
18592;SDS011;9426;54.118;17.948;2023-03-01T11:30:53;30.83;;;12.33;;
18592;SDS011;9426;54.118;17.948;2023-03-01T11:36:30;31.27;;;12.97;;
18592;SDS011;9426;54.118;17.948;2023-03-01T11:42:00;34.17;;;14.60;;
18592;SDS011;9426;54.118;17.948;2023-03-01T11:53:33;29.10;;;12.90;;
18592;SDS011;9426;54.118;17.948;2023-03-01T12:05:31;39.77;;;15.83;;
18592;SDS011;9426;54.118;17.948;2023-03-01T12:11:18;40.03;;;16.53;;
18592;SDS011;9426;54.118;17.948;2023-03-01T12:22:55;43.80;;;17.33;;
18592;SDS011;9426;54.118;17.948;2023-03-01T12:28:51;25.20;;;11.33;;
18592;SDS011;9426;54.118;17.948;2023-03-01T12:34:46;37.90;;;15.90;;
18592;SDS011;9426;54.118;17.948;2023-03-01T12:40:43;34.13;;;14.33;;
18592;SDS011;9426;54.118;17.948;2023-03-01T12:46:20;29.53;;;13.23;;
18592;SDS011;9426;54.118;17.948;2023-03-01T12:51:51;28.00;;;13.03;;
18592;SDS011;9426;54.118;17.948;2023-03-01T12:57:24;29.23;;;13.37;;
18592;SDS011;9426;54.118;17.948;2023-03-01T13:02:59;25.80;;;12.80;;
18592;SDS011;9426;54.118;17.948;2023-03-01T13:08:35;27.50;;;12.60;;
18592;SDS011;9426;54.118;17.948;2023-03-01T13:20:12;24.13;;;11.33;;
18592;SDS011;9426;54.118;17.948;2023-03-01T13:37:32;28.93;;;13.47;;
18592;SDS011;9426;54.118;17.948;2023-03-01T13:42:58;24.13;;;12.13;;
18592;SDS011;9426;54.118;17.948;2023-03-01T13:48:57;24.20;;;13.27;;
18592;SDS011;9426;54.118;17.948;2023-03-01T13:54:23;31.50;;;13.47;;
18592;SDS011;9426;54.118;17.948;2023-03-01T13:59:49;31.53;;;15.07;;
18592;SDS011;9426;54.118;17.948;2023-03-01T14:05:15;27.87;;;13.57;;
18592;SDS011;9426;54.118;17.948;2023-03-01T14:10:41;25.47;;;12.80;;
18592;SDS011;9426;54.118;17.948;2023-03-01T14:16:18;28.50;;;13.23;;
18592;SDS011;9426;54.118;17.948;2023-03-01T14:22:00;24.53;;;12.33;;
18592;SDS011;9426;54.118;17.948;2023-03-01T14:27:30;22.90;;;11.97;;
18592;SDS011;9426;54.118;17.948;2023-03-01T14:32:58;25.63;;;12.97;;
18592;SDS011;9426;54.118;17.948;2023-03-01T14:38:29;22.00;;;11.70;;
18592;SDS011;9426;54.118;17.948;2023-03-01T14:43:57;22.23;;;11.40;;
18592;SDS011;9426;54.118;17.948;2023-03-01T14:49:23;24.77;;;11.77;;
18592;SDS011;9426;54.118;17.948;2023-03-01T14:54:52;23.90;;;11.40;;
18592;SDS011;9426;54.118;17.948;2023-03-01T15:00:19;24.53;;;11.57;;
18592;SDS011;9426;54.118;17.948;2023-03-01T15:05:44;24.50;;;13.30;;
18592;SDS011;9426;54.118;17.948;2023-03-01T15:11:19;26.37;;;12.10;;
18592;SDS011;9426;54.118;17.948;2023-03-01T15:16:46;25.60;;;12.40;;
18592;SDS011;9426;54.118;17.948;2023-03-01T15:22:13;21.93;;;11.33;;
18592;SDS011;9426;54.118;17.948;2023-03-01T15:27:41;18.30;;;9.60;;
18592;SDS011;9426;54.118;17.948;2023-03-01T15:38:56;21.37;;;11.30;;
18592;SDS011;9426;54.118;17.948;2023-03-01T15:44:26;21.83;;;10.63;;
18592;SDS011;9426;54.118;17.948;2023-03-01T15:50:02;25.23;;;12.30;;
18592;SDS011;9426;54.118;17.948;2023-03-01T15:55:28;24.43;;;11.80;;
18592;SDS011;9426;54.118;17.948;2023-03-01T16:00:56;20.17;;;10.10;;
18592;SDS011;9426;54.118;17.948;2023-03-01T16:06:22;21.77;;;10.40;;
18592;SDS011;9426;54.118;17.948;2023-03-01T16:11:46;25.37;;;11.37;;
18592;SDS011;9426;54.118;17.948;2023-03-01T16:17:11;24.47;;;10.83;;
18592;SDS011;9426;54.118;17.948;2023-03-01T16:22:35;20.00;;;10.37;;
18592;SDS011;9426;54.118;17.948;2023-03-01T16:28:00;24.20;;;10.87;;
18592;SDS011;9426;54.118;17.948;2023-03-01T16:33:31;24.67;;;11.63;;
18592;SDS011;9426;54.118;17.948;2023-03-01T16:38:56;28.60;;;12.27;;
18592;SDS011;9426;54.118;17.948;2023-03-01T16:44:22;34.90;;;14.70;;
18592;SDS011;9426;54.118;17.948;2023-03-01T16:49:47;30.47;;;13.47;;
18592;SDS011;9426;54.118;17.948;2023-03-01T16:55:15;31.77;;;14.93;;
18592;SDS011;9426;54.118;17.948;2023-03-01T17:00:39;34.37;;;15.07;;
18592;SDS011;9426;54.118;17.948;2023-03-01T17:06:05;34.77;;;16.30;;
18592;SDS011;9426;54.118;17.948;2023-03-01T17:11:31;41.77;;;17.60;;
18592;SDS011;9426;54.118;17.948;2023-03-01T17:16:55;43.73;;;19.23;;
18592;SDS011;9426;54.118;17.948;2023-03-01T17:22:21;40.00;;;17.93;;
18592;SDS011;9426;54.118;17.948;2023-03-01T17:27:45;34.20;;;15.70;;
18592;SDS011;9426;54.118;17.948;2023-03-01T17:33:09;40.23;;;19.13;;
18592;SDS011;9426;54.118;17.948;2023-03-01T17:38:34;44.40;;;19.90;;
18592;SDS011;9426;54.118;17.948;2023-03-01T17:43:59;48.23;;;22.23;;
18592;SDS011;9426;54.118;17.948;2023-03-01T17:49:22;51.83;;;20.30;;
18592;SDS011;9426;54.118;17.948;2023-03-01T17:54:47;46.10;;;20.60;;
18592;SDS011;9426;54.118;17.948;2023-03-01T18:00:11;49.47;;;20.87;;
18592;SDS011;9426;54.118;17.948;2023-03-01T18:05:36;43.50;;;18.43;;
18592;SDS011;9426;54.118;17.948;2023-03-01T18:11:01;45.87;;;20.17;;
18592;SDS011;9426;54.118;17.948;2023-03-01T18:16:25;53.50;;;26.27;;
18592;SDS011;9426;54.118;17.948;2023-03-01T18:21:52;55.30;;;24.43;;
18592;SDS011;9426;54.118;17.948;2023-03-01T18:27:18;44.20;;;18.30;;
18592;SDS011;9426;54.118;17.948;2023-03-01T18:32:42;59.10;;;24.87;;
18592;SDS011;9426;54.118;17.948;2023-03-01T18:38:06;55.83;;;23.97;;
18592;SDS011;9426;54.118;17.948;2023-03-01T18:43:31;60.43;;;28.40;;
18592;SDS011;9426;54.118;17.948;2023-03-01T18:48:55;56.50;;;25.63;;
18592;SDS011;9426;54.118;17.948;2023-03-01T18:54:19;60.43;;;25.03;;
18592;SDS011;9426;54.118;17.948;2023-03-01T18:59:44;48.77;;;23.27;;
18592;SDS011;9426;54.118;17.948;2023-03-01T19:05:08;46.83;;;21.90;;
18592;SDS011;9426;54.118;17.948;2023-03-01T19:10:32;44.63;;;20.40;;
18592;SDS011;9426;54.118;17.948;2023-03-01T19:16:02;48.23;;;21.20;;
18592;SDS011;9426;54.118;17.948;2023-03-01T19:21:27;44.40;;;20.73;;
18592;SDS011;9426;54.118;17.948;2023-03-01T19:26:53;49.67;;;21.43;;
18592;SDS011;9426;54.118;17.948;2023-03-01T19:32:19;39.63;;;19.13;;
18592;SDS011;9426;54.118;17.948;2023-03-01T19:37:44;41.80;;;18.97;;
18592;SDS011;9426;54.118;17.948;2023-03-01T19:43:07;38.50;;;18.97;;
18592;SDS011;9426;54.118;17.948;2023-03-01T19:48:32;39.00;;;19.03;;
18592;SDS011;9426;54.118;17.948;2023-03-01T19:53:56;40.07;;;18.70;;
18592;SDS011;9426;54.118;17.948;2023-03-01T19:59:20;39.97;;;15.47;;
18592;SDS011;9426;54.118;17.948;2023-03-01T20:04:47;35.57;;;18.10;;
18592;SDS011;9426;54.118;17.948;2023-03-01T20:10:11;32.20;;;16.53;;
18592;SDS011;9426;54.118;17.948;2023-03-01T20:15:35;27.47;;;14.90;;
18592;SDS011;9426;54.118;17.948;2023-03-01T20:21:04;26.23;;;13.37;;
18592;SDS011;9426;54.118;17.948;2023-03-01T20:26:41;22.17;;;13.30;;
18592;SDS011;9426;54.118;17.948;2023-03-01T20:32:05;22.53;;;12.90;;
18592;SDS011;9426;54.118;17.948;2023-03-01T20:37:32;20.90;;;12.33;;
18592;SDS011;9426;54.118;17.948;2023-03-01T20:42:56;20.03;;;12.03;;
18592;SDS011;9426;54.118;17.948;2023-03-01T20:48:22;20.50;;;12.20;;
18592;SDS011;9426;54.118;17.948;2023-03-01T20:53:53;21.97;;;13.47;;
18592;SDS011;9426;54.118;17.948;2023-03-01T20:59:22;28.77;;;15.33;;
18592;SDS011;9426;54.118;17.948;2023-03-01T21:04:49;24.73;;;14.03;;
18592;SDS011;9426;54.118;17.948;2023-03-01T21:10:16;24.90;;;14.33;;
18592;SDS011;9426;54.118;17.948;2023-03-01T21:15:41;29.47;;;14.23;;
18592;SDS011;9426;54.118;17.948;2023-03-01T21:21:05;23.13;;;11.77;;
18592;SDS011;9426;54.118;17.948;2023-03-01T21:26:32;21.03;;;11.63;;
18592;SDS011;9426;54.118;17.948;2023-03-01T21:31:56;24.33;;;11.90;;
18592;SDS011;9426;54.118;17.948;2023-03-01T21:37:19;15.47;;;9.67;;
18592;SDS011;9426;54.118;17.948;2023-03-01T21:42:49;15.90;;;8.93;;
18592;SDS011;9426;54.118;17.948;2023-03-01T21:48:13;14.20;;;7.50;;
18592;SDS011;9426;54.118;17.948;2023-03-01T21:53:37;14.60;;;7.90;;
18592;SDS011;9426;54.118;17.948;2023-03-01T21:59:02;13.07;;;7.17;;
18592;SDS011;9426;54.118;17.948;2023-03-01T22:04:26;13.03;;;7.77;;
18592;SDS011;9426;54.118;17.948;2023-03-01T22:09:50;11.87;;;7.17;;
18592;SDS011;9426;54.118;17.948;2023-03-01T22:15:15;12.23;;;6.87;;
18592;SDS011;9426;54.118;17.948;2023-03-01T22:20:39;13.47;;;6.80;;
18592;SDS011;9426;54.118;17.948;2023-03-01T22:26:03;11.87;;;6.43;;
18592;SDS011;9426;54.118;17.948;2023-03-01T22:31:29;11.77;;;6.17;;
18592;SDS011;9426;54.118;17.948;2023-03-01T22:36:53;13.57;;;6.23;;
18592;SDS011;9426;54.118;17.948;2023-03-01T22:42:18;11.50;;;6.53;;
18592;SDS011;9426;54.118;17.948;2023-03-01T22:47:44;12.53;;;6.73;;
18592;SDS011;9426;54.118;17.948;2023-03-01T22:53:07;14.47;;;6.43;;
18592;SDS011;9426;54.118;17.948;2023-03-01T22:58:31;14.93;;;6.90;;
18592;SDS011;9426;54.118;17.948;2023-03-01T23:03:56;12.50;;;6.77;;
18592;SDS011;9426;54.118;17.948;2023-03-01T23:09:21;14.80;;;6.73;;
18592;SDS011;9426;54.118;17.948;2023-03-01T23:14:47;15.53;;;8.43;;
18592;SDS011;9426;54.118;17.948;2023-03-01T23:20:12;17.60;;;8.30;;
18592;SDS011;9426;54.118;17.948;2023-03-01T23:25:36;13.53;;;7.13;;
18592;SDS011;9426;54.118;17.948;2023-03-01T23:31:00;12.50;;;6.83;;
18592;SDS011;9426;54.118;17.948;2023-03-01T23:36:27;10.27;;;6.60;;
18592;SDS011;9426;54.118;17.948;2023-03-01T23:41:53;14.97;;;6.80;;
18592;SDS011;9426;54.118;17.948;2023-03-01T23:47:17;14.47;;;7.07;;
18592;SDS011;9426;54.118;17.948;2023-03-01T23:52:42;10.70;;;6.67;;
18592;SDS011;9426;54.118;17.948;2023-03-01T23:58:05;12.13;;;6.70;;
